createdAt,value
2023-01-29T00:00:10.555Z,-1.00
2023-01-29T00:05:35.848Z,-1.00
2023-01-29T00:10:38.364Z,-1.00
2023-01-29T00:15:40.819Z,-1.00
2023-01-29T00:20:44.149Z,-1.10
2023-01-29T00:25:47.108Z,-1.10
2023-01-29T00:30:49.532Z,-1.10
2023-01-29T00:35:52.131Z,-1.00
2023-01-29T00:41:13.440Z,-1.10
2023-01-29T00:46:15.911Z,-1.10
2023-01-29T00:51:18.426Z,-1.10
2023-01-29T00:56:21.039Z,-1.10
2023-01-29T01:01:42.852Z,-1.00
2023-01-29T01:06:46.647Z,-1.00
2023-01-29T01:11:49.144Z,-1.00
2023-01-29T01:16:51.629Z,-1.00
2023-01-29T01:21:54.059Z,-1.00
2023-01-29T01:26:56.768Z,-1.00
2023-01-29T01:31:59.827Z,-1.00
2023-01-29T01:37:02.569Z,-1.10
2023-01-29T01:42:11.347Z,-1.00
2023-01-29T01:47:15.559Z,-0.90
2023-01-29T01:52:18.992Z,-1.00
2023-01-29T01:57:25.430Z,-1.00
2023-01-29T02:02:46.991Z,-1.00
2023-01-29T02:08:09.610Z,-0.90
2023-01-29T02:13:12.821Z,-0.90
2023-01-29T02:18:17.804Z,-1.00
2023-01-29T02:23:48.807Z,-0.90
2023-01-29T02:29:30.561Z,-1.00
2023-01-29T02:35:19.997Z,-0.90
2023-01-29T02:40:25.337Z,-0.80
2023-01-29T02:45:53.534Z,-0.90
2023-01-29T02:51:04.752Z,-1.00
2023-01-29T02:56:23.103Z,-1.00
2023-01-29T03:01:42.105Z,-0.90
2023-01-29T03:07:39.219Z,-1.00
2023-01-29T03:12:44.548Z,-1.00
2023-01-29T03:18:11.448Z,-1.00
2023-01-29T03:23:47.450Z,-0.90
2023-01-29T03:29:09.913Z,-0.90
2023-01-29T03:34:24.171Z,-1.00
2023-01-29T03:39:28.688Z,-1.00
2023-01-29T03:44:42.555Z,-1.00
2023-01-29T03:50:07.552Z,-1.00
2023-01-29T03:55:43.355Z,-1.00
2023-01-29T04:01:03.312Z,-0.90
2023-01-29T04:06:10.640Z,-1.00
2023-01-29T04:11:25.006Z,-1.10
2023-01-29T04:16:35.060Z,-1.00
2023-01-29T04:22:22.665Z,-0.90
2023-01-29T04:27:44.063Z,-0.90
2023-01-29T04:33:23.079Z,-1.00
2023-01-29T04:38:32.168Z,-1.00
2023-01-29T04:43:57.749Z,-1.00
2023-01-29T04:49:09.044Z,-1.00
2023-01-29T04:54:49.133Z,-0.90
2023-01-29T05:00:05.279Z,-1.00
2023-01-29T05:05:09.563Z,-1.00
2023-01-29T05:10:14.941Z,-1.00
2023-01-29T05:15:24.096Z,-0.90
2023-01-29T05:20:26.610Z,-0.90
2023-01-29T05:25:33.261Z,-0.90
2023-01-29T05:30:38.863Z,-0.80
2023-01-29T05:35:41.744Z,-0.90
2023-01-29T05:40:44.691Z,-0.90
2023-01-29T05:45:53.708Z,-0.90
2023-01-29T05:51:03.999Z,-0.80
2023-01-29T05:56:06.761Z,-0.80
2023-01-29T06:01:13.384Z,-1.00
2023-01-29T06:06:16.926Z,-1.00
2023-01-29T06:11:20.621Z,-1.30
2023-01-29T06:16:23.178Z,-1.70
2023-01-29T06:21:25.656Z,-1.90
2023-01-29T06:26:45.604Z,-1.90
2023-01-29T06:31:48.223Z,-2.20
2023-01-29T06:36:51.137Z,-2.10
2023-01-29T06:41:53.633Z,-1.90
2023-01-29T06:46:56.159Z,-1.70
2023-01-29T06:51:58.756Z,-1.40
2023-01-29T06:57:01.549Z,-1.30
2023-01-29T07:02:04.413Z,-1.10
2023-01-29T07:07:12.841Z,-1.00
2023-01-29T07:12:15.323Z,-0.70
2023-01-29T07:17:18.015Z,-0.80
2023-01-29T07:22:20.534Z,-0.60
2023-01-29T07:27:23.122Z,-0.60
2023-01-29T07:32:25.590Z,-0.50
2023-01-29T07:37:28.116Z,-0.40
2023-01-29T07:42:30.721Z,-0.40
2023-01-29T07:47:33.243Z,-0.30
2023-01-29T07:52:35.794Z,-0.10
2023-01-29T07:57:38.244Z,0.00
2023-01-29T08:02:41.985Z,0.10
2023-01-29T08:07:49.214Z,0.20
2023-01-29T08:12:59.278Z,0.30
2023-01-29T08:18:02.720Z,0.30
2023-01-29T08:23:14.988Z,0.30
2023-01-29T08:28:17.566Z,0.70
2023-01-29T08:33:29.859Z,0.80
2023-01-29T08:38:36.239Z,1.00
2023-01-29T08:43:38.925Z,1.00
2023-01-29T08:48:41.378Z,1.10
2023-01-29T08:53:43.907Z,1.20
2023-01-29T08:58:46.360Z,1.20
2023-01-29T09:03:50.181Z,1.10
2023-01-29T09:08:52.858Z,1.00
2023-01-29T09:13:55.452Z,1.00
2023-01-29T09:18:57.862Z,0.90
2023-01-29T09:24:00.412Z,1.00
2023-01-29T09:29:02.885Z,1.20
2023-01-29T09:34:05.441Z,1.20
2023-01-29T09:39:08.190Z,1.10
2023-01-29T09:44:20.419Z,1.20
2023-01-29T09:49:29.819Z,1.20
2023-01-29T09:54:38.379Z,1.30
2023-01-29T09:59:41.104Z,1.20
2023-01-29T10:04:52.420Z,1.00
2023-01-29T10:10:26.991Z,0.70
2023-01-29T10:15:46.458Z,0.60
2023-01-29T10:20:54.788Z,0.90
2023-01-29T10:25:57.471Z,0.70
2023-01-29T10:31:09.668Z,0.80
2023-01-29T10:36:19.661Z,0.90
2023-01-29T10:41:43.705Z,0.70
2023-01-29T10:46:53.023Z,0.80
2023-01-29T10:52:06.542Z,0.90
2023-01-29T10:57:41.628Z,0.90
2023-01-29T11:02:46.401Z,0.80
2023-01-29T11:07:54.357Z,0.90
2023-01-29T11:12:58.313Z,0.80
2023-01-29T11:18:13.678Z,0.60
2023-01-29T11:23:31.013Z,0.70
2023-01-29T11:28:45.365Z,0.70
2023-01-29T11:33:50.731Z,0.50
2023-01-29T11:39:19.560Z,0.50
2023-01-29T11:44:29.993Z,0.60
2023-01-29T11:49:36.049Z,0.60
2023-01-29T11:54:52.530Z,0.80
2023-01-29T11:59:59.686Z,0.60
2023-01-29T12:05:14.859Z,1.20
2023-01-29T12:10:35.744Z,0.70
2023-01-29T12:15:39.838Z,0.70
2023-01-29T12:20:53.050Z,0.80
2023-01-29T12:26:15.994Z,0.80
2023-01-29T12:31:33.522Z,0.70
2023-01-29T12:37:02.557Z,0.70
2023-01-29T12:42:22.673Z,0.70
2023-01-29T12:47:37.337Z,0.80
2023-01-29T12:52:45.041Z,0.70
2023-01-29T12:57:50.803Z,0.70
2023-01-29T13:03:09.140Z,0.70
2023-01-29T13:08:18.756Z,0.70
2023-01-29T13:13:44.539Z,0.70
2023-01-29T13:19:10.275Z,0.70
2023-01-29T13:24:16.677Z,0.60
2023-01-29T13:29:22.367Z,0.50
2023-01-29T13:34:34.245Z,0.50
2023-01-29T13:39:46.613Z,0.50
2023-01-29T13:44:52.585Z,0.50
2023-01-29T13:49:57.247Z,0.50
2023-01-29T13:55:14.339Z,0.30
2023-01-29T14:00:22.736Z,0.40
2023-01-29T14:05:31.388Z,0.30
2023-01-29T14:10:36.407Z,0.40
2023-01-29T14:15:40.235Z,0.50
2023-01-29T14:20:51.535Z,0.40
2023-01-29T14:25:54.420Z,0.50
2023-01-29T14:30:57.192Z,0.50
2023-01-29T14:36:05.552Z,0.50
2023-01-29T14:41:26.480Z,0.40
2023-01-29T14:46:35.334Z,0.40
2023-01-29T14:51:42.697Z,0.30
2023-01-29T14:56:55.062Z,0.40
2023-01-29T15:02:20.949Z,0.40
2023-01-29T15:07:27.673Z,0.50
2023-01-29T15:12:51.622Z,0.40
2023-01-29T15:18:19.882Z,0.40
2023-01-29T15:23:31.848Z,0.40
2023-01-29T15:28:38.145Z,0.30
2023-01-29T15:33:44.807Z,0.30
2023-01-29T15:38:47.433Z,0.30
2023-01-29T15:43:56.738Z,0.30
2023-01-29T15:49:06.103Z,0.30
2023-01-29T15:54:15.918Z,0.30
2023-01-29T15:59:27.609Z,0.30
2023-01-29T16:04:31.863Z,0.20
2023-01-29T16:09:34.745Z,0.30
2023-01-29T16:14:38.034Z,0.40
2023-01-29T16:19:40.611Z,0.40
2023-01-29T16:24:43.095Z,0.30
2023-01-29T16:29:45.800Z,0.30
2023-01-29T16:34:49.786Z,0.30
2023-01-29T16:39:53.021Z,0.30
2023-01-29T16:44:59.903Z,0.30
2023-01-29T16:50:54.222Z,0.30
2023-01-29T16:56:03.331Z,0.20
2023-01-29T17:01:10.021Z,0.20
2023-01-29T17:06:19.263Z,0.30
2023-01-29T17:11:35.965Z,0.30
2023-01-29T17:17:02.120Z,0.30
2023-01-29T17:22:07.714Z,0.30
2023-01-29T17:27:20.553Z,0.30
2023-01-29T17:32:24.589Z,0.40
2023-01-29T17:37:47.326Z,0.30
2023-01-29T17:42:49.904Z,0.30
2023-01-29T17:47:52.535Z,0.40
2023-01-29T17:52:55.225Z,0.30
2023-01-29T17:57:57.763Z,0.30
2023-01-29T18:03:02.561Z,0.30
2023-01-29T18:08:05.429Z,0.40
2023-01-29T18:13:08.020Z,0.40
2023-01-29T18:18:14.741Z,0.40
2023-01-29T18:23:17.815Z,0.40
2023-01-29T18:28:20.411Z,0.40
2023-01-29T18:33:24.254Z,0.40
2023-01-29T18:38:26.947Z,0.40
2023-01-29T18:43:29.517Z,0.50
2023-01-29T18:48:32.352Z,0.50
2023-01-29T18:53:35.064Z,0.50
2023-01-29T18:58:37.833Z,0.50
2023-01-29T19:03:41.995Z,0.50
2023-01-29T19:08:44.797Z,0.50
2023-01-29T19:13:48.039Z,0.50
2023-01-29T19:18:50.596Z,0.60
2023-01-29T19:23:53.061Z,0.50
2023-01-29T19:28:55.813Z,0.70
2023-01-29T19:33:59.041Z,0.60
2023-01-29T19:39:02.774Z,0.60
2023-01-29T19:44:05.579Z,0.60
2023-01-29T19:49:10.263Z,0.70
2023-01-29T19:54:12.874Z,0.70
2023-01-29T19:59:15.500Z,0.70
2023-01-29T20:04:18.226Z,0.80
2023-01-29T20:09:20.777Z,0.80
2023-01-29T20:14:23.608Z,0.80
2023-01-29T20:19:26.201Z,0.90
2023-01-29T20:24:30.351Z,0.90
2023-01-29T20:29:33.521Z,0.90
2023-01-29T20:34:36.739Z,0.90
2023-01-29T20:39:39.422Z,-2.00
2023-01-29T20:44:42.801Z,0.80
2023-01-29T20:49:46.473Z,0.90
2023-01-29T20:54:48.931Z,0.90
2023-01-29T20:59:51.547Z,0.80
2023-01-29T21:04:54.147Z,0.90
2023-01-29T21:09:57.023Z,0.90
2023-01-29T21:15:00.267Z,0.90
2023-01-29T21:20:04.333Z,1.00
2023-01-29T21:25:07.565Z,0.90
2023-01-29T21:30:10.707Z,1.00
2023-01-29T21:35:13.482Z,1.00
2023-01-29T21:40:16.726Z,1.00
2023-01-29T21:45:19.733Z,1.00
2023-01-29T21:50:22.403Z,1.00
2023-01-29T21:55:25.055Z,1.00
2023-01-29T22:00:28.066Z,1.10
2023-01-29T22:05:30.609Z,1.00
2023-01-29T22:10:35.151Z,1.00
2023-01-29T22:15:37.636Z,1.00
2023-01-29T22:20:40.247Z,1.00
2023-01-29T22:25:43.585Z,1.00
2023-01-29T22:30:46.313Z,1.00
2023-01-29T22:35:54.162Z,1.00
2023-01-29T22:40:59.475Z,0.90
2023-01-29T22:46:02.159Z,0.90
2023-01-29T22:51:11.010Z,0.80
2023-01-29T22:56:13.576Z,0.70
2023-01-29T23:01:19.602Z,0.70
2023-01-29T23:06:23.756Z,0.70
2023-01-29T23:11:26.368Z,0.70
2023-01-29T23:16:29.242Z,0.70
2023-01-29T23:21:31.934Z,0.70
2023-01-29T23:26:53.098Z,0.60
2023-01-29T23:31:55.638Z,0.60
2023-01-29T23:36:58.068Z,0.60
2023-01-29T23:42:01.128Z,0.60
2023-01-29T23:47:03.691Z,0.50
2023-01-29T23:52:06.319Z,0.50
2023-01-29T23:57:08.986Z,0.50
